METAR Data
IDs: Format: Raw Decoded Include TAF

Data at: 0202 UTC 01 Mar 2021

METAR for:K04V (Saguache Muni, CO, US)
Text:K04V 010135Z AUTO 35011KT 10SM CLR M05/M22 A3013 RMK AO2
Temperature: -5.0°C ( 23°F)
Dewpoint:-22.0°C ( -8°F) [RH = 25%]
Pressure (altimeter):30.13 inches Hg (1020.4 mb)
Winds:from the N (350 degrees) at 13 MPH (11 knots; 5.7 m/s)
Visibility:10 or more sm (16+ km)
Ceiling:at least 12,000 feet AGL
Clouds:sky clear below 12,000 feet AGL
QC Flag:automated observation with no human augmentation